Time;durP1;ratioP1;P1;durP2;ratioP2;P2;SDS_P1;SDS_P2;PMS_P1;PMS_P2;Temp;Humidity;BMP_temperature;BMP_pressure;BME280_temperature;BME280_humidity;BME280_pressure;Samples;Min_cycle;Max_cycle;Signal;HPM_P1;HPM_P2
2021/04/12 00:01:50;;;;;;;1.85;1.60;;;9.80;99.90;;;;;;4698120;30;20122;-78
2021/04/12 00:04:34;;;;;;;2.15;1.95;;;9.70;99.90;;;;;;4719143;30;20114;-78
2021/04/12 00:07:12;;;;;;;5.30;1.90;;;9.70;99.90;;;;;;4704832;30;20056;-78
2021/04/12 00:10:13;;;;;;;4.25;2.15;;;9.60;99.90;;;;;;4718444;30;20456;-78
2021/04/12 00:12:55;;;;;;;2.58;2.33;;;9.60;99.90;;;;;;4687921;30;20060;-78
2021/04/12 00:15:48;;;;;;;2.45;2.22;;;9.60;99.90;;;;;;4719320;30;20140;-78
2021/04/12 00:18:40;;;;;;;2.70;2.22;;;9.60;99.90;;;;;;4718614;30;20336;-78
2021/04/12 00:21:14;;;;;;;2.70;2.38;;;9.60;99.90;;;;;;4704681;30;20143;-78
2021/04/12 00:23:53;;;;;;;2.67;2.33;;;9.60;99.90;;;;;;4718995;30;20535;-78
2021/04/12 00:26:54;;;;;;;2.53;2.13;;;9.60;99.90;;;;;;4718714;30;20415;-78
2021/04/12 00:29:29;;;;;;;2.78;2.28;;;9.50;99.90;;;;;;4718322;30;20061;-78
2021/04/12 00:32:14;;;;;;;2.47;2.28;;;9.60;99.90;;;;;;4718831;30;20233;-78
2021/04/12 00:35:07;;;;;;;2.40;1.77;;;9.50;99.90;;;;;;4718684;30;20077;-78
2021/04/12 00:37:38;;;;;;;2.13;1.83;;;9.50;99.90;;;;;;4718828;30;20135;-78
2021/04/12 00:40:44;;;;;;;2.05;1.80;;;9.50;99.90;;;;;;4718777;30;20045;-78
2021/04/12 00:43:24;;;;;;;1.50;1.27;;;9.50;99.90;;;;;;4718536;30;20057;-78
2021/04/12 00:46:03;;;;;;;1.40;1.30;;;9.40;99.90;;;;;;4718545;30;20496;-78
2021/04/12 00:48:43;;;;;;;1.70;1.27;;;9.40;99.90;;;;;;4718100;30;20712;-78
2021/04/12 00:51:44;;;;;;;1.65;1.20;;;9.40;99.90;;;;;;4718363;30;20067;-78
2021/04/12 00:54:22;;;;;;;1.35;1.00;;;9.40;99.90;;;;;;4714115;30;20519;-78
2021/04/12 00:57:13;;;;;;;1.38;0.95;;;9.30;99.90;;;;;;4718296;30;20052;-78
2021/04/12 01:00:06;;;;;;;2.03;1.00;;;9.30;99.90;;;;;;4717116;30;20078;-78
2021/04/12 01:02:45;;;;;;;1.45;1.13;;;9.30;99.90;;;;;;4717844;30;20048;-78
2021/04/12 01:05:38;;;;;;;1.85;1.17;;;9.30;99.90;;;;;;4703905;30;20053;-78
2021/04/12 01:08:29;;;;;;;2.10;1.60;;;9.30;99.90;;;;;;4702719;30;20056;-78
2021/04/12 01:11:30;;;;;;;1.20;0.98;;;9.20;99.90;;;;;;4717664;30;20076;-78
2021/04/12 01:14:21;;;;;;;1.73;1.38;;;9.20;99.90;;;;;;4717538;30;20524;-78
2021/04/12 01:17:08;;;;;;;2.03;1.40;;;9.20;99.90;;;;;;4717684;30;20139;-78
2021/04/12 01:19:54;;;;;;;2.22;1.48;;;9.20;99.90;;;;;;4717677;30;20120;-78
2021/04/12 01:23:07;;;;;;;2.22;1.70;;;9.20;99.90;;;;;;4717763;30;20087;-78
2021/04/12 01:25:48;;;;;;;2.83;2.20;;;9.10;99.90;;;;;;4717603;30;20053;-78
2021/04/12 01:28:35;;;;;;;3.13;2.40;;;9.00;99.90;;;;;;4717256;30;20135;-78
2021/04/12 01:31:29;;;;;;;3.65;2.75;;;9.00;99.90;;;;;;4717526;30;20081;-78
2021/04/12 01:34:28;;;;;;;4.20;2.50;;;9.00;99.90;;;;;;4717720;30;20527;-78
2021/04/12 01:37:18;;;;;;;3.42;2.60;;;8.90;99.90;;;;;;4717364;30;20596;-78
2021/04/12 01:40:19;;;;;;;3.75;2.60;;;8.90;99.90;;;;;;4716941;30;20471;-77
2021/04/12 01:42:48;;;;;;;5.35;2.85;;;8.90;99.90;;;;;;4657355;30;20078;-78
2021/04/12 01:45:55;;;;;;;4.78;3.33;;;8.80;99.90;;;;;;4718388;30;20044;-78
2021/04/12 01:48:37;;;;;;;4.18;3.13;;;8.80;99.90;;;;;;4717149;30;20143;-78
2021/04/12 01:51:19;;;;;;;4.70;3.30;;;8.70;99.90;;;;;;4717622;30;20052;-78
2021/04/12 01:53:53;;;;;;;4.32;2.95;;;8.70;99.90;;;;;;4717301;30;20527;-78
2021/04/12 01:56:29;;;;;;;4.43;3.10;;;8.60;99.90;;;;;;4717596;30;20449;-78
2021/04/12 01:59:15;;;;;;;4.78;3.20;;;8.60;99.90;;;;;;4716820;30;20079;-78
2021/04/12 02:02:05;;;;;;;5.35;3.45;;;8.50;99.90;;;;;;4718042;30;20067;-78
2021/04/12 02:05:08;;;;;;;5.15;3.42;;;8.50;99.90;;;;;;4717207;30;20515;-78
2021/04/12 02:07:51;;;;;;;6.50;3.95;;;8.30;99.90;;;;;;4688768;30;20147;-78
2021/04/12 02:10:39;;;;;;;5.53;3.45;;;8.20;99.90;;;;;;4717059;30;20163;-78
2021/04/12 02:13:39;;;;;;;5.05;3.35;;;8.10;99.90;;;;;;4717131;30;20080;-78
2021/04/12 02:16:21;;;;;;;5.32;3.33;;;8.00;99.90;;;;;;4702351;30;20083;-77
2021/04/12 02:19:38;;;;;;;4.45;3.05;;;7.90;99.90;;;;;;4717657;30;20075;-78
2021/04/12 02:22:15;;;;;;;4.78;2.85;;;7.90;99.90;;;;;;4676503;30;20497;-78
2021/04/12 02:25:03;;;;;;;5.55;3.42;;;7.70;99.90;;;;;;4716899;30;20151;-78
2021/04/12 02:27:55;;;;;;;5.60;2.92;;;7.60;99.90;;;;;;4717308;30;20059;-78
2021/04/12 02:30:32;;;;;;;5.10;2.90;;;7.50;99.90;;;;;;4716878;30;20060;-78
2021/04/12 02:33:17;;;;;;;4.60;3.03;;;7.50;99.90;;;;;;4716735;30;20084;-78
2021/04/12 02:35:55;;;;;;;5.85;3.28;;;7.40;99.90;;;;;;4716734;30;20139;-78
2021/04/12 02:38:48;;;;;;;5.90;3.33;;;7.40;99.90;;;;;;4716183;30;20044;-78
2021/04/12 02:41:15;;;;;;;5.35;3.25;;;7.40;99.90;;;;;;4716778;30;20048;-78
2021/04/12 02:43:57;;;;;;;5.43;3.33;;;7.30;99.90;;;;;;4702079;30;20056;-77
2021/04/12 02:46:52;;;;;;;5.78;3.60;;;7.20;99.90;;;;;;4717468;30;20214;-78
2021/04/12 02:49:32;;;;;;;6.20;3.65;;;7.10;99.90;;;;;;4716209;30;20057;-78
2021/04/12 02:52:31;;;;;;;5.90;2.80;;;7.00;99.90;;;;;;4716722;30;20417;-77
2021/04/12 02:55:22;;;;;;;4.88;2.80;;;6.90;99.90;;;;;;4716418;30;20072;-78
2021/04/12 02:58:17;;;;;;;6.20;3.45;;;6.80;99.90;;;;;;4716765;30;20139;-78
2021/04/12 03:00:56;;;;;;;4.60;2.92;;;6.80;99.90;;;;;;4716208;30;20398;-78
2021/04/12 03:03:49;;;;;;;6.50;3.58;;;6.70;99.90;;;;;;4716167;30;20072;-78
2021/04/12 03:06:36;;;;;;;4.45;2.78;;;6.70;99.90;;;;;;4716229;30;20103;-78
2021/04/12 03:09:20;;;;;;;4.18;2.60;;;6.50;99.90;;;;;;4715782;30;20150;-78
2021/04/12 03:12:03;;;;;;;4.82;2.85;;;6.40;99.90;;;;;;4716229;30;20148;-78
2021/04/12 03:15:11;;;;;;;5.18;3.22;;;6.30;99.90;;;;;;4716095;30;20536;-78
2021/04/12 03:17:48;;;;;;;4.95;3.33;;;6.30;99.90;;;;;;4716543;30;20131;-78
2021/04/12 03:20:46;;;;;;;4.10;2.40;;;6.20;99.90;;;;;;4716036;30;20053;-78
2021/04/12 03:23:50;;;;;;;2.80;1.88;;;6.10;99.90;;;;;;4715900;30;20057;-78
2021/04/12 03:26:30;;;;;;;2.25;1.60;;;5.90;99.90;;;;;;4716180;30;20053;-78
2021/04/12 03:29:04;;;;;;;2.60;1.45;;;5.90;99.90;;;;;;4715798;30;20045;-78
2021/04/12 03:31:57;;;;;;;2.53;1.70;;;5.80;99.90;;;;;;4716037;30;20049;-78
2021/04/12 03:34:38;;;;;;;1.70;1.20;;;5.80;99.90;;;;;;4701609;30;20049;-78
2021/04/12 03:37:34;;;;;;;2.30;1.55;;;5.70;99.90;;;;;;4716055;30;20505;-78
2021/04/12 03:40:15;;;;;;;2.78;2.00;;;5.50;99.90;;;;;;4715578;30;20064;-78
2021/04/12 03:43:27;;;;;;;2.45;1.67;;;5.30;99.90;;;;;;4715893;30;20120;-78
2021/04/12 03:46:17;;;;;;;12.07;7.38;;;5.30;99.90;;;;;;4649579;30;20058;-78
2021/04/12 03:49:03;;;;;;;2.63;1.67;;;5.20;99.90;;;;;;4701684;30;20345;-78
2021/04/12 03:51:59;;;;;;;2.90;2.35;;;5.10;99.90;;;;;;4715975;30;20414;-78
2021/04/12 03:54:42;;;;;;;3.05;1.05;;;4.90;99.90;;;;;;4716616;30;20132;-79
2021/04/12 03:57:50;;;;;;;1.80;1.10;;;4.80;99.90;;;;;;4715888;30;20604;-78
2021/04/12 04:00:41;;;;;;;1.33;1.10;;;4.70;99.90;;;;;;4715941;30;20049;-78
2021/04/12 04:03:38;;;;;;;1.50;1.25;;;4.60;99.90;;;;;;4715639;30;20615;-79
2021/04/12 04:06:13;;;;;;;2.40;2.20;;;4.50;99.90;;;;;;4715802;30;20148;-78
2021/04/12 04:09:07;;;;;;;3.20;1.58;;;4.40;99.90;;;;;;4715455;30;20072;-78
2021/04/12 04:11:39;;;;;;;1.83;1.25;;;4.30;99.90;;;;;;4715201;30;20051;-78
2021/04/12 04:14:27;;;;;;;1.45;1.20;;;4.10;99.90;;;;;;4716460;30;20045;-78
2021/04/12 04:17:13;;;;;;;2.03;1.55;;;4.00;99.90;;;;;;4701381;30;20139;-78
2021/04/12 04:19:43;;;;;;;2.45;1.80;;;3.90;99.90;;;;;;4699943;30;20469;-79
2021/04/12 04:23:00;;;;;;;2.05;1.50;;;3.70;99.90;;;;;;4698538;30;20049;-78
2021/04/12 04:25:47;;;;;;;1.40;1.00;;;3.60;99.90;;;;;;4716367;30;20148;-79
2021/04/12 04:28:33;;;;;;;1.73;1.05;;;3.50;99.90;;;;;;4704089;30;20049;-79
2021/04/12 04:31:34;;;;;;;2.03;1.10;;;3.40;99.90;;;;;;4705149;30;20525;-78
2021/04/12 04:34:27;;;;;;;1.80;1.17;;;3.30;99.90;;;;;;4706130;30;20049;-78
2021/04/12 04:37:10;;;;;;;3.65;1.77;;;3.00;99.90;;;;;;4702204;30;20044;-79
2021/04/12 04:40:09;;;;;;;1.80;1.20;;;2.90;99.90;;;;;;4717836;30;20596;-79
2021/04/12 04:42:54;;;;;;;2.75;1.20;;;2.90;99.90;;;;;;4717143;30;20076;-78
2021/04/12 04:45:55;;;;;;;1.65;1.30;;;2.80;99.90;;;;;;4718099;30;20084;-79
2021/04/12 04:48:44;;;;;;;1.65;1.23;;;2.80;99.90;;;;;;4727604;30;20469;-79
2021/04/12 04:51:40;;;;;;;2.55;1.15;;;2.70;99.90;;;;;;4712210;30;20091;-78
2021/04/12 04:54:23;;;;;;;2.70;1.45;;;2.70;99.90;;;;;;4732859;30;20067;-78
2021/04/12 04:57:07;;;;;;;2.45;1.60;;;2.70;99.90;;;;;;4718370;30;20134;-79
2021/04/12 04:59:37;;;;;;;1.80;1.42;;;2.70;99.90;;;;;;4732048;30;20106;-79
2021/04/12 05:02:14;;;;;;;2.03;1.60;;;2.60;99.90;;;;;;4732658;30;20053;-79
2021/04/12 05:05:16;;;;;;;3.22;1.67;;;2.50;99.90;;;;;;4719168;30;20052;-78
2021/04/12 05:08:01;;;;;;;2.85;2.08;;;2.60;99.90;;;;;;4702652;30;20500;-78
2021/04/12 05:10:53;;;;;;;2.58;1.92;;;2.60;99.90;;;;;;4722493;30;20112;-79
2021/04/12 05:13:41;;;;;;;2.13;1.60;;;2.60;99.90;;;;;;4724719;30;20084;-79
2021/04/12 05:16:26;;;;;;;2.13;1.85;;;2.50;99.90;;;;;;4726147;30;20143;-78
2021/04/12 05:19:32;;;;;;;2.63;1.70;;;2.50;99.90;;;;;;4709467;30;20550;-82
2021/04/12 05:22:18;;;;;;;2.72;1.90;;;2.50;99.90;;;;;;4707625;30;20057;-81
2021/04/12 05:25:19;;;;;;;2.65;1.88;;;2.40;99.90;;;;;;4710847;30;20057;-80
2021/04/12 05:28:14;;;;;;;2.78;2.00;;;2.30;99.90;;;;;;4707974;30;20053;-80
2021/04/12 05:31:14;;;;;;;2.65;1.85;;;2.30;99.90;;;;;;4722422;30;20151;-80
2021/04/12 05:34:12;;;;;;;6.38;3.72;;;2.30;99.90;;;;;;4707914;30;20092;-81
2021/04/12 05:36:59;;;;;;;9.35;5.00;;;2.30;99.90;;;;;;4720760;30;20143;-79
2021/04/12 05:39:42;;;;;;;4.70;2.88;;;2.20;99.90;;;;;;4720015;30;20071;-79
2021/04/12 05:42:21;;;;;;;3.05;2.30;;;2.30;99.90;;;;;;4708201;30;20076;-79
2021/04/12 05:45:08;;;;;;;3.55;2.22;;;2.30;99.90;;;;;;4725123;30;20107;-80
2021/04/12 05:48:19;;;;;;;2.47;1.85;;;2.20;99.90;;;;;;4723739;30;20079;-81
2021/04/12 05:50:59;;;;;;;2.10;1.30;;;2.10;99.90;;;;;;4710290;30;20092;-80
2021/04/12 05:53:51;;;;;;;2.40;1.40;;;2.10;99.90;;;;;;4740400;30;20184;-81
2021/04/12 05:56:38;;;;;;;3.20;1.50;;;2.10;99.90;;;;;;4723949;30;20143;-79
2021/04/12 05:59:32;;;;;;;2.72;1.90;;;2.10;99.90;;;;;;4707055;30;20076;-79
2021/04/12 06:02:13;;;;;;;3.42;1.95;;;2.10;99.90;;;;;;4708145;30;20501;-79
2021/04/12 06:04:51;;;;;;;2.85;2.17;;;2.00;99.90;;;;;;4720906;30;20443;-79
2021/04/12 06:08:00;;;;;;;1.75;1.45;;;2.00;99.90;;;;;;4724716;30;20103;-81
2021/04/12 06:10:54;;;;;;;3.45;2.00;;;2.10;99.90;;;;;;4725909;30;20472;-81
2021/04/12 06:13:54;;;;;;;3.28;2.38;;;2.00;99.90;;;;;;4711685;30;20090;-79
2021/04/12 06:16:28;;;;;;;4.07;2.15;;;1.90;99.90;;;;;;4727791;30;20080;-80
2021/04/12 06:19:45;;;;;;;4.03;2.60;;;1.90;99.90;;;;;;4713878;30;20092;-80
2021/04/12 06:22:23;;;;;;;4.25;2.92;;;2.00;99.90;;;;;;4662184;30;20058;-80
2021/04/12 06:25:27;;;;;;;6.30;5.57;;;2.00;99.90;;;;;;4723325;30;20064;-80
2021/04/12 06:28:18;;;;;;;5.80;4.50;;;2.00;99.90;;;;;;4730324;30;20063;-80
2021/04/12 06:31:22;;;;;;;4.68;3.80;;;2.10;99.90;;;;;;4715511;30;20053;-81
2021/04/12 06:34:19;;;;;;;4.75;3.15;;;2.10;99.90;;;;;;4711128;30;20084;-81
2021/04/12 06:37:04;;;;;;;5.63;3.65;;;2.10;99.90;;;;;;4715285;30;20071;-81
2021/04/12 06:40:08;;;;;;;8.48;5.72;;;2.10;99.90;;;;;;4712538;30;20521;-82
2021/04/12 06:42:46;;;;;;;5.10;3.60;;;2.20;99.90;;;;;;4695883;30;20155;-82
2021/04/12 06:45:45;;;;;;;4.20;3.37;;;2.20;99.90;;;;;;4727856;30;20045;-80
2021/04/12 06:48:11;;;;;;;;;;;2.10;99.90;;;;;;4728039;30;20076;-80
2021/04/12 06:50:40;;;;;;;4.07;3.25;;;2.10;99.90;;;;;;4728497;30;19927;-82
2021/04/12 06:53:36;;;;;;;3.95;3.42;;;2.20;99.90;;;;;;4727697;30;20056;-81
2021/04/12 06:56:20;;;;;;;4.07;3.63;;;2.10;99.90;;;;;;4727942;30;20053;-82
2021/04/12 06:59:26;;;;;;;4.55;3.22;;;2.10;99.90;;;;;;4727731;30;20053;-82
2021/04/12 07:02:11;;;;;;;6.60;3.42;;;2.20;99.90;;;;;;4716982;30;20060;-81
2021/04/12 07:05:13;;;;;;;4.05;3.08;;;2.20;99.90;;;;;;4718171;30;20056;-80
2021/04/12 07:08:02;;;;;;;5.13;3.28;;;2.20;99.90;;;;;;4701060;30;20060;-81
2021/04/12 07:11:13;;;;;;;3.80;3.08;;;2.20;99.90;;;;;;4716435;30;20079;-81
2021/04/12 07:14:10;;;;;;;6.03;3.72;;;2.20;99.90;;;;;;4731678;30;20168;-80
2021/04/12 07:17:11;;;;;;;5.53;3.38;;;2.20;99.90;;;;;;4729973;30;20316;-80
2021/04/12 07:20:22;;;;;;;5.57;3.72;;;2.20;99.90;;;;;;4731919;30;20551;-80
2021/04/12 07:23:26;;;;;;;5.97;4.38;;;2.20;99.90;;;;;;4713513;30;20069;-80
2021/04/12 07:26:21;;;;;;;8.45;4.28;;;2.20;99.90;;;;;;4728387;30;20089;-80
2021/04/12 07:29:25;;;;;;;6.68;3.65;;;2.20;99.90;;;;;;4745821;30;20090;-80
2021/04/12 07:32:27;;;;;;;6.60;4.10;;;2.30;99.90;;;;;;4729871;30;20057;-82
2021/04/12 07:35:19;;;;;;;20.60;9.80;;;2.30;99.90;;;;;;4700620;30;20151;-80
2021/04/12 07:38:33;;;;;;;6.22;4.10;;;2.20;99.90;;;;;;4725337;30;20582;-80
2021/04/12 07:41:33;;;;;;;5.50;3.60;;;2.20;99.90;;;;;;4725400;30;20567;-80
2021/04/12 07:44:24;;;;;;;5.20;3.55;;;2.30;99.90;;;;;;4719336;30;20049;-77
2021/04/12 07:47:14;;;;;;;6.85;4.55;;;2.30;99.90;;;;;;4703368;30;20421;-79
2021/04/12 07:49:46;;;;;;;6.47;4.47;;;2.60;99.90;;;;;;4704827;30;20088;-79
2021/04/12 07:52:55;;;;;;;4.90;3.75;;;2.60;99.90;;;;;;4719443;30;20169;-79
2021/04/12 07:55:49;;;;;;;6.65;3.60;;;2.50;99.90;;;;;;4721713;30;20061;-79
2021/04/12 07:58:35;;;;;;;5.20;3.28;;;2.50;99.90;;;;;;4722327;30;20057;-79
2021/04/12 08:01:07;;;;;;;4.78;3.20;;;2.50;99.90;;;;;;4706318;30;20049;-79
2021/04/12 08:04:04;;;;;;;5.28;4.30;;;2.50;99.90;;;;;;4723803;30;20072;-78
2021/04/12 08:07:13;;;;;;;3.83;2.90;;;2.50;99.90;;;;;;4708834;30;20144;-80
2021/04/12 08:09:59;;;;;;;4.75;3.47;;;2.50;99.90;;;;;;4719792;30;20132;-79
2021/04/12 08:13:08;;;;;;;5.10;3.35;;;2.50;99.90;;;;;;4707582;30;20049;-78
2021/04/12 08:16:06;;;;;;;6.18;3.58;;;2.50;99.90;;;;;;4707739;30;20106;-79
2021/04/12 08:18:32;;;;;;;4.40;3.38;;;2.50;99.90;;;;;;4690922;30;20084;-80
2021/04/12 08:21:24;;;;;;;4.70;3.33;;;2.50;99.90;;;;;;4721294;30;20144;-78
2021/04/12 08:23:59;;;;;;;4.93;3.80;;;2.50;99.90;;;;;;4738636;30;20125;-79
2021/04/12 08:27:04;;;;;;;6.60;3.67;;;2.60;99.90;;;;;;4705517;30;20450;-78
2021/04/12 08:30:17;;;;;;;4.90;3.28;;;2.60;99.90;;;;;;4721869;30;20091;-77
2021/04/12 08:33:08;;;;;;;6.82;4.63;;;2.60;99.90;;;;;;4721800;30;20052;-78
2021/04/12 08:36:26;;;;;;;8.43;5.03;;;2.70;99.90;;;;;;4705700;30;20053;-80
2021/04/12 08:39:19;;;;;;;9.48;5.28;;;2.70;99.90;;;;;;4667113;30;20151;-79
2021/04/12 08:42:22;;;;;;;10.55;5.72;;;2.70;99.90;;;;;;4690677;30;20068;-78
2021/04/12 08:45:20;;;;;;;10.63;5.07;;;2.70;99.90;;;;;;4705113;30;20155;-79
2021/04/12 08:48:20;;;;;;;12.93;6.88;;;2.70;99.90;;;;;;4732152;30;20147;-80
2021/04/12 08:51:03;;;;;;;6.40;4.90;;;2.60;99.90;;;;;;4719191;30;20053;-78
2021/04/12 08:54:24;;;;;;;6.68;5.03;;;2.60;99.90;;;;;;4726777;30;20509;-78
2021/04/12 08:57:28;;;;;;;6.28;4.80;;;2.70;99.90;;;;;;4705252;30;20045;-78
2021/04/12 09:00:38;;;;;;;6.38;4.80;;;2.70;99.90;;;;;;4733791;30;20075;-78
2021/04/12 09:03:26;;;;;;;5.15;3.97;;;2.70;99.90;;;;;;4723285;30;20060;-78
2021/04/12 09:06:06;;;;;;;10.73;7.32;;;2.60;99.90;;;;;;4722838;30;20509;-78
2021/04/12 09:08:51;;;;;;;7.80;6.07;;;2.70;99.90;;;;;;4720818;30;20044;-80
2021/04/12 09:11:36;;;;;;;8.77;5.38;;;2.70;99.90;;;;;;4732996;30;20084;-79
2021/04/12 09:14:21;;;;;;;8.38;6.65;;;2.80;99.90;;;;;;4717509;30;20054;-78
2021/04/12 09:17:03;;;;;;;8.60;6.75;;;2.80;99.90;;;;;;4728670;30;20517;-78
2021/04/12 09:19:48;;;;;;;7.63;5.88;;;2.90;99.90;;;;;;4721155;30;20421;-78
2021/04/12 09:22:47;;;;;;;7.38;4.78;;;2.90;99.90;;;;;;4722350;30;20071;-77
2021/04/12 09:25:46;;;;;;;5.43;4.50;;;3.00;99.90;;;;;;4709300;30;20115;-77
2021/04/12 09:28:28;;;;;;;9.00;5.93;;;3.10;99.90;;;;;;4722176;30;20060;-77
2021/04/12 09:31:48;;;;;;;4.75;3.85;;;3.30;99.90;;;;;;4710181;30;20056;-76
2021/04/12 09:34:57;;;;;;;8.05;5.65;;;3.40;99.90;;;;;;4681688;30;20091;-76
2021/04/12 09:37:55;;;;;;;6.85;3.72;;;3.50;99.90;;;;;;4709386;30;20060;-76
2021/04/12 09:40:58;;;;;;;5.22;4.00;;;3.40;99.90;;;;;;4709427;30;20057;-75
2021/04/12 09:43:57;;;;;;;5.18;3.80;;;3.40;99.90;;;;;;4707572;30;20049;-78
2021/04/12 09:46:39;;;;;;;5.95;4.20;;;3.30;99.90;;;;;;4694518;30;20151;-76
2021/04/12 09:49:35;;;;;;;7.82;5.53;;;3.40;99.90;;;;;;4707514;30;20520;-77
2021/04/12 09:52:22;;;;;;;6.82;4.78;;;3.40;99.90;;;;;;4721421;30;20127;-76
2021/04/12 09:55:03;;;;;;;6.30;4.05;;;3.40;99.90;;;;;;4720464;30;20083;-80
2021/04/12 09:58:08;;;;;;;5.63;4.07;;;3.30;99.90;;;;;;4719014;30;20152;-78
2021/04/12 10:01:07;;;;;;;6.03;3.60;;;3.40;99.90;;;;;;4705195;30;20049;-78
2021/04/12 10:04:10;;;;;;;4.25;3.03;;;3.30;99.90;;;;;;4719675;30;20537;-79
2021/04/12 10:06:55;;;;;;;5.03;3.67;;;3.30;99.90;;;;;;4704994;30;20076;-80
2021/04/12 10:09:27;;;;;;;4.32;3.53;;;3.20;99.90;;;;;;4703048;30;20620;-78
2021/04/12 10:12:03;;;;;;;5.60;3.83;;;3.20;99.90;;;;;;4718324;30;20154;-78
2021/04/12 10:14:48;;;;;;;6.78;4.18;;;3.10;99.90;;;;;;4704237;30;20139;-78
2021/04/12 10:17:20;;;;;;;5.75;3.80;;;3.00;99.90;;;;;;4718986;30;20048;-77
2021/04/12 10:19:59;;;;;;;6.47;3.63;;;3.00;99.90;;;;;;4717029;30;20048;-79
2021/04/12 10:22:56;;;;;;;4.85;3.92;;;3.00;99.90;;;;;;4718984;30;20076;-78
2021/04/12 10:25:36;;;;;;;5.57;4.05;;;3.00;99.90;;;;;;4700594;30;20048;-78
2021/04/12 10:28:28;;;;;;;6.82;4.57;;;3.00;99.90;;;;;;4718143;30;20424;-78
2021/04/12 10:31:07;;;;;;;5.43;3.60;;;3.10;99.90;;;;;;4705222;30;20072;-79
2021/04/12 10:33:43;;;;;;;5.18;3.60;;;3.00;99.90;;;;;;4719008;30;20056;-78
2021/04/12 10:36:22;;;;;;;5.97;4.30;;;3.10;99.90;;;;;;4720125;30;20072;-78
2021/04/12 10:38:57;;;;;;;5.57;3.97;;;3.10;99.90;;;;;;4717400;30;20048;-77
2021/04/12 10:41:53;;;;;;;6.55;4.40;;;3.10;99.90;;;;;;4719994;30;20079;-80
2021/04/12 10:44:39;;;;;;;5.90;3.83;;;3.10;99.90;;;;;;4716069;30;20088;-78
2021/04/12 10:47:27;;;;;;;6.93;4.60;;;3.30;99.90;;;;;;4704988;30;20155;-78
2021/04/12 10:49:56;;;;;;;6.28;4.18;;;3.30;99.90;;;;;;4718512;30;20147;-78
2021/04/12 10:52:23;;;;;;;5.45;4.07;;;3.20;99.90;;;;;;4704430;30;20056;-80
2021/04/12 10:55:03;;;;;;;6.95;3.58;;;3.20;99.90;;;;;;4714425;30;20786;-80
2021/04/12 10:57:41;;;;;;;5.47;4.20;;;3.00;99.90;;;;;;4718053;30;20047;-80
2021/04/12 11:00:38;;;;;;;5.13;4.00;;;3.00;99.90;;;;;;4706242;30;20044;-80
2021/04/12 11:03:46;;;;;;;6.63;4.70;;;2.90;99.90;;;;;;4730948;30;20052;-79
2021/04/12 11:06:32;;;;;;;6.32;3.88;;;2.90;99.90;;;;;;4720708;30;20131;-78
2021/04/12 11:09:24;;;;;;;4.70;3.63;;;2.90;99.90;;;;;;4704996;30;20147;-79
2021/04/12 11:12:05;;;;;;;5.75;3.75;;;2.90;99.90;;;;;;4709174;30;20116;-78
2021/04/12 11:14:50;;;;;;;5.47;3.40;;;3.00;99.90;;;;;;4717672;30;20044;-78
2021/04/12 11:17:29;;;;;;;5.15;4.07;;;2.90;99.90;;;;;;4704834;30;20103;-79
2021/04/12 11:20:10;;;;;;;7.40;4.40;;;2.90;99.90;;;;;;4704628;30;20139;-81
2021/04/12 11:22:55;;;;;;;6.72;4.47;;;3.00;99.90;;;;;;4705408;30;20143;-78
2021/04/12 11:25:43;;;;;;;18.67;11.07;;;3.10;99.90;;;;;;4718210;30;20056;-80
2021/04/12 11:28:17;;;;;;;6.80;4.90;;;3.20;99.90;;;;;;4703153;30;20057;-78
2021/04/12 11:30:52;;;;;;;;;;;3.30;99.90;;;;;;4718689;30;20057;-80
2021/04/12 11:33:54;;;;;;;6.43;4.93;;;3.30;99.90;;;;;;4719257;30;19961;-78
2021/04/12 11:36:23;;;;;;;5.88;3.80;;;3.30;99.90;;;;;;4721080;30;20492;-78
2021/04/12 11:39:00;;;;;;;7.47;3.72;;;3.20;99.90;;;;;;4726175;30;20143;-78
2021/04/12 11:41:44;;;;;;;4.18;3.40;;;3.20;99.90;;;;;;4740953;30;20054;-80
2021/04/12 11:44:16;;;;;;;4.95;3.25;;;3.20;99.90;;;;;;4741155;30;20056;-79
2021/04/12 11:47:13;;;;;;;5.65;3.75;;;3.30;99.90;;;;;;4726090;30;20067;-78
2021/04/12 11:50:14;;;;;;;7.32;3.88;;;3.30;99.90;;;;;;4702723;30;20144;-80
2021/04/12 11:52:53;;;;;;;5.75;3.88;;;3.30;99.90;;;;;;4723916;30;20121;-78
2021/04/12 11:55:45;;;;;;;5.80;4.30;;;3.40;99.90;;;;;;4723922;30;20053;-80
2021/04/12 11:58:36;;;;;;;5.70;4.03;;;3.40;99.90;;;;;;4723763;30;20053;-78
2021/04/12 12:01:26;;;;;;;5.47;3.65;;;3.40;99.90;;;;;;4724894;30;20060;-81
2021/04/12 12:04:02;;;;;;;5.65;4.05;;;3.50;99.90;;;;;;4724849;30;20052;-81
2021/04/12 12:06:44;;;;;;;6.68;4.30;;;3.60;99.90;;;;;;4709787;30;20053;-78
2021/04/12 12:09:29;;;;;;;7.65;5.10;;;3.60;99.90;;;;;;4708895;30;20180;-78
2021/04/12 12:12:26;;;;;;;8.25;5.32;;;3.60;99.90;;;;;;4724681;30;20118;-78
2021/04/12 12:15:06;;;;;;;6.28;4.63;;;3.60;99.90;;;;;;4725013;30;20062;-77
2021/04/12 12:17:46;;;;;;;6.53;4.75;;;3.60;99.90;;;;;;4724483;30;20080;-79
2021/04/12 12:20:34;;;;;;;6.75;5.05;;;3.60;99.90;;;;;;4724368;30;20061;-80
2021/04/12 12:23:19;;;;;;;4.93;3.67;;;3.50;99.90;;;;;;4710071;30;20083;-79
2021/04/12 12:25:53;;;;;;;6.63;4.05;;;3.20;99.90;;;;;;4719359;30;20056;-80
2021/04/12 12:28:51;;;;;;;6.05;4.57;;;2.90;99.90;;;;;;4696777;30;20053;-79
2021/04/12 12:34:28;;;;;;;12.43;7.97;;;2.70;99.90;;;;;;4712750;30;20049;-79
2021/04/12 12:37:06;;;;;;;8.70;5.60;;;2.80;99.90;;;;;;4722350;30;20049;-78
2021/04/12 12:39:46;;;;;;;8.93;6.18;;;2.80;99.90;;;;;;4740744;30;20048;-77
2021/04/12 12:42:41;;;;;;;8.05;5.85;;;2.90;99.90;;;;;;4739964;30;20106;-79
2021/04/12 12:45:35;;;;;;;8.40;5.90;;;3.00;99.90;;;;;;4725959;30;20058;-78
2021/04/12 12:48:24;;;;;;;9.15;5.72;;;3.20;99.90;;;;;;4737273;30;20101;-80
2021/04/12 12:50:56;;;;;;;8.02;5.72;;;3.30;99.90;;;;;;4736646;30;20060;-81
2021/04/12 12:53:35;;;;;;;11.90;6.78;;;3.30;99.90;;;;;;4714495;30;20053;-80
2021/04/12 12:56:22;;;;;;;8.90;5.80;;;3.40;99.90;;;;;;4720022;30;20138;-78
2021/04/12 12:59:02;;;;;;;10.27;6.07;;;3.50;99.90;;;;;;4719761;30;20057;-80
2021/04/12 13:01:37;;;;;;;8.60;6.18;;;3.50;99.90;;;;;;4719612;30;20057;-81
2021/04/12 13:04:27;;;;;;;9.32;6.40;;;3.40;99.90;;;;;;4719720;30;20123;-77
2021/04/12 13:06:56;;;;;;;10.82;6.32;;;3.50;99.90;;;;;;4704691;30;20088;-78
2021/04/12 13:09:37;;;;;;;9.65;6.45;;;3.30;99.90;;;;;;4716623;30;20107;-78
2021/04/12 13:12:03;;;;;;;9.25;7.05;;;3.30;99.90;;;;;;4719377;30;20057;-79
2021/04/12 13:14:47;;;;;;;10.75;7.30;;;3.30;99.90;;;;;;4719895;30;20061;-80
2021/04/12 13:17:33;;;;;;;13.43;8.93;;;3.30;99.90;;;;;;4717960;30;20057;-76
2021/04/12 13:20:18;;;;;;;13.00;8.68;;;3.30;99.90;;;;;;4721312;30;20496;-80
2021/04/12 13:23:04;;;;;;;14.40;8.43;;;3.30;99.90;;;;;;4736428;30;20080;-80
2021/04/12 13:25:44;;;;;;;;;;;3.30;99.90;;;;;;4735981;30;20049;-80
2021/04/12 13:28:31;;;;;;;12.10;7.43;;;3.30;99.90;;;;;;4720694;30;19964;-78
2021/04/12 13:31:14;;;;;;;14.23;8.85;;;3.30;99.90;;;;;;4717807;30;20504;-78
2021/04/12 13:33:49;;;;;;;8.30;6.20;;;3.40;99.90;;;;;;4717293;30;20584;-78
2021/04/12 13:36:24;;;;;;;15.85;9.50;;;3.40;99.90;;;;;;4702951;30;20057;-80
2021/04/12 13:39:05;;;;;;;11.70;8.38;;;3.50;99.90;;;;;;4716192;30;20059;-77
2021/04/12 13:41:37;;;;;;;16.60;9.02;;;3.40;99.90;;;;;;4716918;30;20059;-80
2021/04/12 13:44:07;;;;;;;12.00;8.68;;;3.30;99.90;;;;;;4716765;30;20059;-78
2021/04/12 13:46:57;;;;;;;16.73;10.48;;;3.30;99.90;;;;;;4701952;30;20062;-78
2021/04/12 13:49:38;;;;;;;;;;;3.40;99.90;;;;;;4703219;30;20049;-77
2021/04/12 13:52:17;;;;;;;11.80;9.45;;;3.30;99.90;;;;;;4717465;30;19926;-77
2021/04/12 13:55:09;;;;;;;14.55;9.02;;;3.30;99.90;;;;;;4717345;30;20099;-78
2021/04/12 13:57:39;;;;;;;12.20;8.55;;;3.30;99.90;;;;;;4733971;30;20600;-79
2021/04/12 14:00:29;;;;;;;12.68;8.90;;;3.20;99.90;;;;;;4721673;30;20049;-77
2021/04/12 14:03:05;;;;;;;14.05;9.60;;;3.30;99.90;;;;;;4716368;30;20414;-78
2021/04/12 14:05:40;;;;;;;12.90;9.10;;;3.10;99.90;;;;;;4716358;30;20063;-77
2021/04/12 14:08:26;;;;;;;17.15;11.20;;;3.10;99.90;;;;;;4700878;30;20067;-77
2021/04/12 14:11:03;;;;;;;16.33;10.38;;;3.10;99.90;;;;;;4716190;30;20778;-77
2021/04/12 14:13:48;;;;;;;13.20;8.85;;;3.00;99.90;;;;;;4702129;30;20580;-77
2021/04/12 14:16:27;;;;;;;14.50;8.80;;;3.10;99.90;;;;;;4701645;30;20114;-79
2021/04/12 14:19:05;;;;;;;14.15;9.43;;;3.00;99.90;;;;;;4716194;30;20040;-79
2021/04/12 14:21:42;;;;;;;15.60;9.90;;;2.80;99.90;;;;;;4731837;30;20472;-79
2021/04/12 14:24:25;;;;;;;13.57;9.60;;;2.60;99.90;;;;;;4716217;30;20045;-78
2021/04/12 14:27:00;;;;;;;18.85;9.90;;;2.60;99.90;;;;;;4697899;30;20689;-77
2021/04/12 14:29:34;;;;;;;16.80;10.27;;;2.60;99.90;;;;;;4697789;30;20143;-77
2021/04/12 14:32:13;;;;;;;15.38;9.77;;;2.60;99.90;;;;;;4713154;30;20517;-77
2021/04/12 14:34:47;;;;;;;16.45;10.98;;;2.70;99.90;;;;;;4713086;30;20103;-77
2021/04/12 14:37:30;;;;;;;14.52;9.85;;;2.80;99.90;;;;;;4713073;30;20060;-80
2021/04/12 14:40:31;;;;;;;11.05;7.93;;;2.70;99.90;;;;;;4711908;30;20052;-78
2021/04/12 14:43:04;;;;;;;13.35;8.93;;;2.70;99.90;;;;;;4699268;30;20044;-78
2021/04/12 14:45:43;;;;;;;12.48;9.07;;;2.80;99.90;;;;;;4698511;30;20147;-78
2021/04/12 14:48:18;;;;;;;15.15;9.45;;;2.80;99.90;;;;;;4714104;30;20633;-77